createdAt,value
2019-05-18T00:00:46.599Z,80.40
2019-05-18T00:01:46.675Z,80.26
2019-05-18T00:02:46.595Z,80.50
2019-05-18T00:03:46.567Z,80.50
2019-05-18T00:04:46.564Z,80.66
2019-05-18T00:05:46.543Z,80.91
2019-05-18T00:06:46.577Z,81.11
2019-05-18T00:07:46.529Z,81.11
2019-05-18T00:08:46.581Z,80.91
2019-05-18T00:09:46.501Z,81.52
2019-05-18T00:10:46.490Z,81.25
2019-05-18T00:11:46.510Z,81.01
2019-05-18T00:12:46.510Z,81.31
2019-05-18T00:13:46.451Z,81.56
2019-05-18T00:14:46.446Z,81.35
2019-05-18T00:15:46.437Z,81.86
2019-05-18T00:16:46.438Z,81.56
2019-05-18T00:17:46.425Z,81.45
2019-05-18T00:18:46.409Z,81.86
2019-05-18T00:19:46.398Z,81.96
2019-05-18T00:20:46.436Z,81.49
2019-05-18T00:21:46.369Z,81.86
2019-05-18T00:22:46.379Z,81.96
2019-05-18T00:23:46.345Z,81.80
2019-05-18T00:24:46.333Z,82.10
2019-05-18T00:25:46.360Z,81.59
2019-05-18T00:26:46.305Z,82.31
2019-05-18T00:27:46.312Z,82.10
2019-05-18T00:28:46.286Z,82.82
2019-05-18T00:29:46.290Z,82.92
2019-05-18T00:30:46.270Z,82.55
2019-05-18T00:31:46.259Z,82.86
2019-05-18T00:32:46.326Z,82.92
2019-05-18T00:33:46.237Z,82.75
2019-05-18T00:34:46.216Z,83.23
2019-05-18T00:35:46.214Z,82.45
2019-05-18T00:36:46.193Z,82.75
2019-05-18T00:37:46.206Z,83.06
2019-05-18T00:38:46.176Z,83.26
2019-05-18T00:39:46.163Z,83.06
2019-05-18T00:40:46.152Z,83.33
2019-05-18T00:41:46.149Z,83.37
2019-05-18T00:42:46.196Z,83.47
2019-05-18T00:43:46.148Z,83.57
2019-05-18T00:44:46.129Z,83.37
2019-05-18T00:45:46.116Z,83.06
2019-05-18T00:46:46.133Z,83.67
2019-05-18T00:47:46.089Z,83.26
2019-05-18T00:48:46.102Z,83.47
2019-05-18T00:49:46.057Z,83.26
2019-05-18T00:50:46.038Z,84.08
2019-05-18T00:51:46.050Z,83.57
2019-05-18T00:52:46.044Z,84.18
2019-05-18T00:53:46.023Z,84.53
2019-05-18T00:54:45.991Z,84.94
2019-05-18T00:55:45.998Z,84.94
2019-05-18T00:56:45.973Z,85.04
2019-05-18T00:57:45.992Z,85.14
2019-05-18T00:58:45.973Z,85.45
2019-05-18T00:59:45.940Z,84.42
2019-05-18T01:00:45.948Z,85.04
2019-05-18T01:01:45.936Z,85.14
2019-05-18T01:02:45.913Z,84.94
2019-05-18T01:03:45.928Z,84.94
2019-05-18T01:04:45.882Z,84.53
2019-05-18T01:05:45.883Z,85.14
2019-05-18T01:06:45.873Z,85.18
2019-05-18T01:07:45.844Z,84.98
2019-05-18T01:08:45.856Z,85.08
2019-05-18T01:09:45.882Z,85.18
2019-05-18T01:10:45.822Z,85.79
2019-05-18T01:11:45.813Z,85.28
2019-05-18T01:12:45.811Z,85.18
2019-05-18T01:13:45.822Z,85.49
2019-05-18T01:14:45.774Z,85.38
2019-05-18T01:15:45.812Z,85.38
2019-05-18T01:16:45.753Z,85.83
2019-05-18T01:17:56.837Z,85.73
2019-05-18T01:18:46.756Z,85.02
2019-05-18T01:19:45.745Z,85.63
2019-05-18T01:20:45.715Z,85.12
2019-05-18T01:21:45.723Z,85.53
2019-05-18T01:22:45.685Z,85.42
2019-05-18T01:23:45.679Z,85.63
2019-05-18T01:24:45.676Z,85.53
2019-05-18T01:25:45.671Z,85.63
2019-05-18T01:26:45.657Z,85.63
2019-05-18T01:27:45.636Z,85.63
2019-05-18T01:28:45.634Z,85.42
2019-05-18T01:29:45.638Z,85.22
2019-05-18T01:30:45.602Z,85.83
2019-05-18T01:31:45.604Z,85.88
2019-05-18T01:32:45.576Z,85.67
2019-05-18T01:33:45.567Z,85.67
2019-05-18T01:34:45.569Z,85.97
2019-05-18T01:35:45.580Z,85.77
2019-05-18T01:36:45.536Z,85.88
2019-05-18T01:37:45.538Z,85.77
2019-05-18T01:38:45.522Z,85.97
2019-05-18T01:39:45.522Z,85.88
2019-05-18T01:40:45.501Z,85.77
2019-05-18T01:41:45.479Z,85.88
2019-05-18T01:42:45.471Z,85.97
2019-05-18T01:43:45.461Z,86.02
2019-05-18T01:44:45.466Z,85.77
2019-05-18T01:45:45.478Z,86.18
2019-05-18T01:46:45.434Z,86.08
2019-05-18T01:47:45.421Z,86.29
2019-05-18T01:48:45.401Z,86.22
2019-05-18T01:49:45.429Z,86.22
2019-05-18T01:50:45.379Z,86.32
2019-05-18T01:51:45.383Z,86.63
2019-05-18T01:52:45.366Z,87.35
2019-05-18T01:53:45.379Z,87.04
2019-05-18T01:54:45.363Z,86.94
2019-05-18T01:55:45.399Z,87.04
2019-05-18T01:56:45.348Z,86.94
2019-05-18T01:57:45.305Z,87.08
2019-05-18T01:58:45.309Z,87.08
2019-05-18T01:59:45.318Z,87.35
2019-05-18T02:00:45.339Z,87.38
2019-05-18T02:01:45.303Z,87.08
2019-05-18T02:02:45.255Z,87.08
2019-05-18T02:03:45.243Z,87.49
2019-05-18T02:04:45.237Z,87.29
2019-05-18T02:05:45.242Z,87.38
2019-05-18T02:06:45.207Z,87.29
2019-05-18T02:07:45.192Z,87.49
2019-05-18T02:08:45.217Z,87.79
2019-05-18T02:09:45.171Z,87.70
2019-05-18T02:10:45.187Z,87.63
2019-05-18T02:11:45.166Z,88.56
2019-05-18T02:12:45.139Z,88.45
2019-05-18T02:13:45.139Z,88.45
2019-05-18T02:14:45.120Z,88.10
2019-05-18T02:15:45.112Z,87.79
2019-05-18T02:16:45.112Z,88.65
2019-05-18T02:17:45.096Z,87.84
2019-05-18T02:18:45.095Z,88.62
2019-05-18T02:19:45.061Z,88.45
2019-05-18T02:20:45.086Z,88.65
2019-05-18T02:21:45.055Z,88.62
2019-05-18T02:22:45.028Z,88.71
2019-05-18T02:23:45.024Z,88.45
2019-05-18T02:24:45.017Z,88.35
2019-05-18T02:25:45.022Z,88.24
2019-05-18T02:26:45.020Z,87.94
2019-05-18T02:27:44.984Z,88.45
2019-05-18T02:28:44.968Z,88.65
2019-05-18T02:29:44.963Z,88.04
2019-05-18T02:30:44.959Z,88.45
2019-05-18T02:31:44.957Z,88.65
2019-05-18T02:32:44.960Z,88.45
2019-05-18T02:33:44.910Z,88.35
2019-05-18T02:34:44.902Z,88.56
2019-05-18T02:35:44.901Z,88.56
2019-05-18T02:36:44.897Z,88.04
2019-05-18T02:37:44.868Z,88.24
2019-05-18T02:38:44.870Z,88.56
2019-05-18T02:39:44.840Z,89.17
2019-05-18T02:40:44.829Z,89.17
2019-05-18T02:41:44.836Z,88.86
2019-05-18T02:42:44.829Z,89.17
2019-05-18T02:43:44.797Z,89.37
2019-05-18T02:44:44.784Z,89.31
2019-05-18T02:45:44.779Z,88.86
2019-05-18T02:46:44.784Z,88.86
2019-05-18T02:47:44.761Z,88.96
2019-05-18T02:48:49.762Z,89.37
2019-05-18T02:49:45.746Z,88.96
2019-05-18T02:50:44.717Z,88.86
2019-05-18T02:51:44.799Z,89.27
2019-05-18T02:52:44.716Z,89.27
2019-05-18T02:53:44.695Z,89.27
2019-05-18T02:54:44.678Z,88.80
2019-05-18T02:55:44.662Z,89.27
2019-05-18T02:56:44.659Z,89.21
2019-05-18T02:57:44.665Z,89.21
2019-05-18T02:58:44.641Z,89.11
2019-05-18T02:59:44.619Z,89.00
2019-05-18T03:00:44.618Z,89.27
2019-05-18T03:01:44.607Z,89.47
2019-05-18T03:02:44.613Z,89.21
2019-05-18T03:03:44.577Z,89.21
2019-05-18T03:04:44.570Z,88.70
2019-05-18T03:05:44.568Z,88.59
2019-05-18T03:06:44.558Z,88.45
2019-05-18T03:07:44.561Z,88.29
2019-05-18T03:08:44.517Z,88.65
2019-05-18T03:09:44.511Z,88.14
2019-05-18T03:10:44.503Z,88.86
2019-05-18T03:11:44.508Z,88.35
2019-05-18T03:12:44.506Z,88.65
2019-05-18T03:13:44.465Z,88.45
2019-05-18T03:14:44.452Z,88.76
2019-05-18T03:15:44.461Z,89.06
2019-05-18T03:16:44.440Z,89.06
2019-05-18T03:17:44.420Z,88.45
2019-05-18T03:18:44.431Z,89.37
2019-05-18T03:19:44.414Z,89.47
2019-05-18T03:20:44.397Z,89.58
2019-05-18T03:21:44.411Z,90.19
2019-05-18T03:22:44.393Z,89.98
2019-05-18T03:23:44.382Z,90.09
2019-05-18T03:24:44.344Z,89.89
2019-05-18T03:25:44.376Z,89.89
2019-05-18T03:26:44.349Z,90.09
2019-05-18T03:27:44.311Z,89.68
2019-05-18T03:28:44.318Z,89.68
2019-05-18T03:29:44.292Z,90.19
2019-05-18T03:30:44.281Z,89.78
2019-05-18T03:31:44.278Z,89.89
2019-05-18T03:32:44.264Z,89.89
2019-05-18T03:33:44.261Z,89.89
2019-05-18T03:34:44.230Z,89.89
2019-05-18T03:35:44.237Z,89.83
2019-05-18T03:36:44.255Z,89.78
2019-05-18T03:37:44.199Z,89.37
2019-05-18T03:38:44.206Z,89.37
2019-05-18T03:39:44.177Z,89.78
2019-05-18T03:40:44.192Z,89.98
2019-05-18T03:41:44.171Z,89.58
2019-05-18T03:42:44.158Z,89.68
2019-05-18T03:43:44.155Z,89.98
2019-05-18T03:44:44.118Z,89.89
2019-05-18T03:45:44.127Z,89.78
2019-05-18T03:46:44.107Z,89.83
2019-05-18T03:47:44.098Z,89.72
2019-05-18T03:48:44.099Z,89.83
2019-05-18T03:49:44.069Z,89.89
2019-05-18T03:50:44.057Z,89.78
2019-05-18T03:51:44.046Z,89.92
2019-05-18T03:52:44.033Z,89.89
2019-05-18T03:53:44.064Z,90.34
2019-05-18T03:54:44.038Z,90.23
2019-05-18T03:55:44.011Z,90.13
2019-05-18T03:56:43.986Z,89.92
2019-05-18T03:57:43.988Z,89.83
2019-05-18T03:58:43.981Z,89.98
2019-05-18T03:59:44.017Z,89.83
2019-05-18T04:00:43.950Z,89.62
2019-05-18T04:01:43.960Z,89.42
2019-05-18T04:02:43.935Z,89.51
2019-05-18T04:03:43.918Z,89.83
2019-05-18T04:04:43.948Z,89.92
2019-05-18T04:05:43.896Z,89.72
2019-05-18T04:06:43.893Z,90.13
2019-05-18T04:07:43.900Z,90.23
2019-05-18T04:08:43.857Z,89.72
2019-05-18T04:09:43.890Z,90.23
2019-05-18T04:10:43.849Z,90.13
2019-05-18T04:11:44.059Z,90.23
2019-05-18T04:12:44.007Z,90.28
2019-05-18T04:13:43.824Z,90.13
2019-05-18T04:14:43.815Z,89.92
2019-05-18T04:15:43.780Z,90.23
2019-05-18T04:16:43.814Z,90.23
2019-05-18T04:17:43.814Z,90.34
2019-05-18T04:18:43.748Z,90.28
2019-05-18T04:19:46.798Z,90.28
2019-05-18T04:20:43.745Z,90.37
2019-05-18T04:21:43.716Z,90.64
2019-05-18T04:22:43.704Z,91.16
2019-05-18T04:23:43.699Z,91.09
2019-05-18T04:24:43.716Z,91.09
2019-05-18T04:25:44.246Z,91.09
2019-05-18T04:26:43.661Z,91.09
2019-05-18T04:27:43.653Z,91.30
2019-05-18T04:28:43.658Z,91.26
2019-05-18T04:29:43.649Z,91.26
2019-05-18T04:30:43.628Z,91.05
2019-05-18T04:31:43.667Z,91.36
2019-05-18T04:32:43.594Z,91.67
2019-05-18T04:33:43.588Z,91.67
2019-05-18T04:34:43.595Z,91.46
2019-05-18T04:35:43.575Z,91.67
2019-05-18T04:36:43.560Z,91.67
2019-05-18T04:37:43.543Z,91.67
2019-05-18T04:38:43.530Z,91.56
2019-05-18T04:39:43.555Z,91.67
2019-05-18T04:40:43.530Z,91.97
2019-05-18T04:41:43.493Z,92.49
2019-05-18T04:42:43.519Z,92.38
2019-05-18T04:43:43.471Z,92.34
2019-05-18T04:44:43.468Z,92.18
2019-05-18T04:45:43.473Z,92.03
2019-05-18T04:46:43.439Z,91.83
2019-05-18T04:47:47.984Z,91.73
2019-05-18T04:48:44.424Z,92.14
2019-05-18T04:49:43.404Z,91.63
2019-05-18T04:50:43.414Z,91.63
2019-05-18T04:51:43.383Z,91.73
2019-05-18T04:52:43.378Z,91.73
2019-05-18T04:53:43.370Z,91.73
2019-05-18T04:54:43.357Z,91.93
2019-05-18T04:55:43.360Z,91.93
2019-05-18T04:56:43.457Z,91.83
2019-05-18T04:57:43.323Z,91.99
2019-05-18T04:58:43.308Z,91.99
2019-05-18T04:59:43.295Z,91.99
2019-05-18T05:00:43.319Z,92.30
2019-05-18T05:01:43.276Z,91.89
2019-05-18T05:02:43.259Z,91.89
2019-05-18T05:03:43.255Z,91.69
2019-05-18T05:04:43.242Z,92.19
2019-05-18T05:05:43.262Z,91.89
2019-05-18T05:06:43.216Z,92.05
2019-05-18T05:07:43.374Z,91.95
2019-05-18T05:08:43.201Z,91.95
2019-05-18T05:09:43.180Z,92.15
2019-05-18T05:10:43.240Z,92.25
2019-05-18T05:11:43.177Z,92.25
2019-05-18T05:12:43.150Z,92.46
2019-05-18T05:13:43.139Z,92.05
2019-05-18T05:14:43.130Z,92.25
2019-05-18T05:15:43.142Z,91.80
2019-05-18T05:16:43.123Z,92.21
2019-05-18T05:17:43.096Z,92.11
2019-05-18T05:18:43.082Z,92.83
2019-05-18T05:19:43.080Z,93.65
2019-05-18T05:20:43.137Z,93.44
2019-05-18T05:21:43.071Z,93.24
2019-05-18T05:22:43.040Z,93.54
2019-05-18T05:23:43.032Z,93.33
2019-05-18T05:24:43.032Z,93.80
2019-05-18T05:25:43.008Z,93.19
2019-05-18T05:26:43.049Z,93.70
2019-05-18T05:27:42.989Z,93.91
2019-05-18T05:28:42.975Z,93.50
2019-05-18T05:29:42.963Z,93.76
2019-05-18T05:30:42.994Z,93.66
2019-05-18T05:31:42.986Z,93.25
2019-05-18T05:32:42.939Z,93.25
2019-05-18T05:33:42.962Z,93.05
2019-05-18T05:34:42.919Z,92.94
2019-05-18T05:35:42.908Z,93.96
2019-05-18T05:36:42.889Z,93.66
2019-05-18T05:37:42.892Z,93.71
2019-05-18T05:38:42.864Z,92.39
2019-05-18T05:39:42.873Z,92.19
2019-05-18T05:40:42.854Z,92.29
2019-05-18T05:41:42.835Z,92.08
2019-05-18T05:42:42.849Z,91.88
2019-05-18T05:43:42.808Z,91.98
2019-05-18T05:44:42.799Z,91.88
2019-05-18T05:45:42.788Z,91.94
2019-05-18T05:46:42.810Z,92.04
2019-05-18T05:47:42.784Z,92.04
2019-05-18T05:48:42.753Z,91.43
2019-05-18T05:49:42.747Z,91.63
2019-05-18T05:50:42.733Z,92.04
2019-05-18T05:51:42.739Z,91.53
2019-05-18T05:52:42.737Z,91.53
2019-05-18T05:53:42.719Z,91.94
2019-05-18T05:54:42.707Z,91.18
2019-05-18T05:55:42.684Z,90.88
2019-05-18T05:56:42.706Z,90.26
2019-05-18T05:57:42.685Z,90.26
2019-05-18T05:58:42.722Z,90.26
2019-05-18T05:59:42.641Z,90.26
2019-05-18T06:00:42.648Z,90.26
2019-05-18T06:01:42.613Z,89.81
2019-05-18T06:02:42.613Z,89.45
2019-05-18T06:03:42.624Z,89.71
2019-05-18T06:04:42.598Z,89.65
2019-05-18T06:05:42.570Z,89.71
2019-05-18T06:06:42.567Z,89.40
2019-05-18T06:07:42.548Z,89.30
2019-05-18T06:08:42.555Z,89.30
2019-05-18T06:09:42.535Z,89.16
2019-05-18T06:10:42.522Z,89.06
2019-05-18T06:11:42.511Z,89.06
2019-05-18T06:12:42.503Z,88.75
2019-05-18T06:13:42.515Z,88.75
2019-05-18T06:14:42.482Z,88.34
2019-05-18T06:15:42.458Z,88.55
2019-05-18T06:16:42.478Z,88.00
2019-05-18T06:17:42.440Z,88.20
2019-05-18T06:18:42.451Z,88.61
2019-05-18T06:19:42.425Z,88.10
2019-05-18T06:20:51.039Z,87.29
2019-05-18T06:21:43.404Z,87.59
2019-05-18T06:22:42.399Z,87.35
2019-05-18T06:23:42.396Z,86.94
2019-05-18T06:24:42.357Z,86.53
2019-05-18T06:25:42.345Z,86.74
2019-05-18T06:26:42.343Z,86.83
2019-05-18T06:27:42.323Z,86.59
2019-05-18T06:28:42.352Z,85.68
2019-05-18T06:29:42.297Z,85.27
2019-05-18T06:30:42.292Z,84.97
2019-05-18T06:31:42.298Z,85.03
2019-05-18T06:32:42.278Z,85.23
2019-05-18T06:33:42.273Z,84.82
2019-05-18T06:34:42.275Z,85.70
2019-05-18T06:35:42.238Z,85.09
2019-05-18T06:36:42.227Z,84.68
2019-05-18T06:37:42.213Z,84.88
2019-05-18T06:38:42.203Z,84.28
2019-05-18T06:39:42.217Z,83.42
2019-05-18T06:40:42.191Z,83.12
2019-05-18T06:41:42.177Z,83.12
2019-05-18T06:42:42.163Z,82.92
2019-05-18T06:43:42.141Z,82.81
2019-05-18T06:44:42.177Z,82.98
2019-05-18T06:45:42.136Z,82.17
2019-05-18T06:46:42.124Z,82.26
2019-05-18T06:47:42.098Z,81.76
2019-05-18T06:48:42.094Z,80.60
2019-05-18T06:49:42.098Z,80.80
2019-05-18T06:50:42.089Z,80.91
2019-05-18T06:51:42.061Z,81.21
2019-05-18T06:52:42.048Z,80.60
2019-05-18T06:53:42.030Z,80.19
2019-05-18T06:54:42.050Z,80.30
2019-05-18T06:55:42.040Z,80.60
2019-05-18T06:56:42.016Z,80.46
2019-05-18T06:57:42.003Z,79.65
2019-05-18T06:58:41.976Z,79.25
2019-05-18T06:59:42.009Z,79.04
2019-05-18T07:00:41.972Z,78.94
2019-05-18T07:01:41.944Z,79.04
2019-05-18T07:02:41.940Z,79.55
2019-05-18T07:03:44.937Z,79.38
2019-05-18T07:04:44.509Z,78.67
2019-05-18T07:05:41.947Z,79.04
2019-05-18T07:06:41.894Z,78.94
2019-05-18T07:07:41.881Z,78.13
2019-05-18T07:08:41.874Z,78.44
2019-05-18T07:09:41.880Z,78.64
2019-05-18T07:10:41.876Z,78.33
2019-05-18T07:11:41.848Z,79.04
2019-05-18T07:12:41.835Z,79.85
2019-05-18T07:13:41.811Z,79.45
2019-05-18T07:14:41.805Z,79.04
2019-05-18T07:15:41.819Z,78.74
2019-05-18T07:16:41.790Z,78.44
2019-05-18T07:17:41.774Z,78.19
2019-05-18T07:18:41.766Z,77.89
2019-05-18T07:19:41.745Z,79.00
2019-05-18T07:20:41.754Z,79.17
2019-05-18T07:21:41.760Z,77.82
2019-05-18T07:22:41.725Z,77.82
2019-05-18T07:23:43.841Z,76.80
2019-05-18T07:24:41.708Z,77.21
2019-05-18T07:25:41.711Z,77.37
2019-05-18T07:26:41.667Z,76.06
2019-05-18T07:27:41.684Z,74.71
2019-05-18T07:28:41.648Z,74.81
2019-05-18T07:29:41.641Z,75.31
2019-05-18T07:30:41.677Z,75.18
2019-05-18T07:31:41.622Z,75.24
2019-05-18T07:32:41.615Z,74.43
2019-05-18T07:33:41.601Z,73.39
2019-05-18T07:34:41.582Z,71.47
2019-05-18T07:35:41.599Z,70.56
2019-05-18T07:36:41.585Z,71.26
2019-05-18T07:37:41.556Z,72.24
2019-05-18T07:38:41.555Z,72.24
2019-05-18T07:39:41.555Z,72.24
2019-05-18T07:40:41.549Z,72.44
2019-05-18T07:41:46.837Z,72.44
2019-05-18T07:42:42.493Z,70.22
2019-05-18T07:43:41.492Z,71.13
2019-05-18T07:44:41.479Z,67.90
2019-05-18T07:45:41.473Z,67.90
2019-05-18T07:46:41.579Z,69.01
2019-05-18T07:47:41.441Z,68.91
2019-05-18T07:48:41.502Z,69.31
2019-05-18T07:49:41.429Z,70.53
2019-05-18T07:50:41.430Z,69.82
2019-05-18T07:51:41.416Z,71.23
2019-05-18T07:52:41.420Z,70.73
2019-05-18T07:53:41.382Z,70.53
2019-05-18T07:54:41.385Z,68.80
2019-05-18T07:55:41.349Z,69.31
2019-05-18T07:56:41.357Z,70.12
2019-05-18T07:57:41.346Z,69.62
2019-05-18T07:58:41.408Z,69.08
2019-05-18T07:59:41.314Z,69.68
2019-05-18T08:00:41.291Z,70.49
2019-05-18T08:01:41.317Z,69.78
2019-05-18T08:02:41.271Z,69.18
2019-05-18T08:03:41.263Z,70.29
2019-05-18T08:04:41.262Z,69.58
2019-05-18T08:05:41.241Z,69.89
2019-05-18T08:06:41.258Z,69.48
2019-05-18T08:07:41.237Z,68.98
2019-05-18T08:08:41.212Z,68.98
2019-05-18T08:09:41.212Z,69.15
2019-05-18T08:10:43.636Z,69.65
2019-05-18T08:11:41.207Z,69.62
2019-05-18T08:12:41.186Z,68.64
2019-05-18T08:13:41.148Z,69.15
2019-05-18T08:14:41.159Z,70.15
2019-05-18T08:15:41.145Z,68.71
2019-05-18T08:16:41.114Z,69.82
2019-05-18T08:17:41.120Z,69.42
2019-05-18T08:18:41.113Z,69.62
2019-05-18T08:19:41.097Z,68.91
2019-05-18T08:20:41.082Z,69.18
2019-05-18T08:21:52.600Z,67.77
2019-05-18T08:22:42.072Z,67.77
2019-05-18T08:23:41.077Z,68.57
2019-05-18T08:24:41.034Z,71.87
2019-05-18T08:25:41.021Z,69.55
2019-05-18T08:26:41.010Z,68.11
2019-05-18T08:27:41.018Z,67.30
2019-05-18T08:28:40.989Z,68.48
2019-05-18T08:29:40.988Z,69.38
2019-05-18T08:30:40.958Z,68.65
2019-05-18T08:31:40.954Z,68.55
2019-05-18T08:32:40.970Z,67.64
2019-05-18T08:33:40.930Z,67.31
2019-05-18T08:34:40.935Z,67.21
2019-05-18T08:35:40.912Z,67.18
2019-05-18T08:36:40.911Z,67.38
2019-05-18T08:37:40.897Z,65.67
2019-05-18T08:38:40.902Z,63.22
2019-05-18T08:39:40.888Z,63.53
2019-05-18T08:40:40.856Z,64.83
2019-05-18T08:41:40.865Z,64.63
2019-05-18T08:42:40.836Z,63.29
2019-05-18T08:43:40.841Z,63.09
2019-05-18T08:44:40.817Z,63.49
2019-05-18T08:45:40.816Z,63.59
2019-05-18T08:46:40.792Z,63.59
2019-05-18T08:47:40.779Z,63.17
2019-05-18T08:48:40.777Z,62.66
2019-05-18T08:49:40.775Z,63.46
2019-05-18T08:50:40.750Z,63.36
2019-05-18T08:51:40.756Z,61.86
2019-05-18T08:52:40.735Z,61.66
2019-05-18T08:53:40.738Z,60.22
2019-05-18T08:54:40.702Z,61.13
2019-05-18T08:55:40.693Z,62.53
2019-05-18T08:56:40.689Z,62.83
2019-05-18T08:57:40.720Z,62.20
2019-05-18T08:58:40.659Z,61.30
2019-05-18T08:59:40.679Z,58.79
2019-05-18T09:00:40.637Z,61.50
2019-05-18T09:01:40.648Z,60.10
2019-05-18T09:02:40.616Z,61.17
2019-05-18T09:03:40.624Z,59.56
2019-05-18T09:04:40.597Z,59.46
2019-05-18T09:05:40.580Z,59.36
2019-05-18T09:06:40.609Z,59.94
2019-05-18T09:07:40.557Z,57.53
2019-05-18T09:08:40.570Z,58.13
2019-05-18T09:09:40.555Z,58.33
2019-05-18T09:10:40.546Z,56.93
2019-05-18T09:11:40.536Z,56.52
2019-05-18T09:12:40.508Z,57.63
2019-05-18T09:13:40.498Z,58.33
2019-05-18T09:14:40.513Z,57.83
2019-05-18T09:15:40.480Z,57.63
2019-05-18T09:16:40.466Z,56.30
2019-05-18T09:17:40.458Z,55.90
2019-05-18T09:18:40.438Z,57.40
2019-05-18T09:19:40.453Z,56.00
2019-05-18T09:20:40.423Z,58.00
2019-05-18T09:21:40.407Z,56.17
2019-05-18T09:22:40.437Z,55.98
2019-05-18T09:23:40.391Z,57.48
2019-05-18T09:24:40.394Z,56.17
2019-05-18T09:25:40.365Z,57.17
2019-05-18T09:26:40.349Z,57.95
2019-05-18T09:27:40.346Z,56.85
2019-05-18T09:28:40.322Z,56.85
2019-05-18T09:29:40.345Z,55.94
2019-05-18T09:30:41.337Z,56.85
2019-05-18T09:31:40.309Z,57.32
2019-05-18T09:32:40.288Z,57.02
2019-05-18T09:33:40.270Z,57.42
2019-05-18T09:34:40.390Z,57.39
2019-05-18T09:35:40.254Z,55.99
2019-05-18T09:36:40.249Z,56.39
2019-05-18T09:37:40.231Z,55.69
2019-05-18T09:38:40.326Z,55.89
2019-05-18T09:39:40.222Z,55.77
2019-05-18T09:40:40.208Z,54.86
2019-05-18T09:41:40.180Z,54.86
2019-05-18T09:42:40.177Z,54.27
2019-05-18T09:43:40.162Z,50.87
2019-05-18T09:44:40.188Z,53.07
2019-05-18T09:45:40.155Z,53.47
2019-05-18T09:46:40.129Z,53.87
2019-05-18T09:47:40.121Z,53.37
2019-05-18T09:48:40.116Z,54.57
2019-05-18T09:49:40.096Z,53.57
2019-05-18T09:50:40.123Z,52.37
2019-05-18T09:51:40.076Z,54.57
2019-05-18T09:52:45.203Z,54.84
2019-05-18T09:53:51.152Z,54.34
2019-05-18T09:54:41.039Z,54.64
2019-05-18T09:55:40.048Z,54.24
2019-05-18T09:56:40.055Z,53.54
2019-05-18T09:57:40.022Z,53.24
2019-05-18T09:58:40.064Z,53.34
2019-05-18T09:59:39.982Z,52.22
2019-05-18T10:00:40.009Z,53.22
2019-05-18T10:01:39.968Z,52.92
2019-05-18T10:02:39.960Z,51.72
2019-05-18T10:03:39.946Z,53.02
2019-05-18T10:04:39.945Z,54.02
2019-05-18T10:05:39.942Z,51.42
2019-05-18T10:06:39.924Z,51.42
2019-05-18T10:07:39.906Z,53.39
2019-05-18T10:08:39.911Z,51.29
2019-05-18T10:09:39.995Z,51.29
2019-05-18T10:10:39.886Z,51.50
2019-05-18T10:11:39.863Z,49.80
2019-05-18T10:12:39.853Z,52.09
2019-05-18T10:13:39.831Z,50.27
2019-05-18T10:14:39.840Z,50.90
2019-05-18T10:15:39.840Z,49.40
2019-05-18T10:16:39.827Z,51.77
2019-05-18T10:17:39.801Z,51.47
2019-05-18T10:18:39.781Z,51.07
2019-05-18T10:19:39.765Z,51.27
2019-05-18T10:20:39.762Z,49.75
2019-05-18T10:21:39.778Z,49.55
2019-05-18T10:22:53.436Z,51.15
2019-05-18T10:23:40.751Z,49.15
2019-05-18T10:24:39.719Z,50.82
2019-05-18T10:25:39.732Z,49.13
2019-05-18T10:26:39.715Z,49.05
2019-05-18T10:27:39.693Z,49.05
2019-05-18T10:28:39.677Z,49.53
2019-05-18T10:29:39.660Z,49.23
2019-05-18T10:30:39.666Z,47.63
2019-05-18T10:31:39.638Z,48.73
2019-05-18T10:32:39.648Z,48.73
2019-05-18T10:33:39.620Z,48.33
2019-05-18T10:34:39.612Z,48.33
2019-05-18T10:35:39.620Z,47.33
2019-05-18T10:36:39.611Z,50.13
2019-05-18T10:37:39.613Z,47.53
2019-05-18T10:38:39.569Z,47.24
2019-05-18T10:39:39.550Z,46.72
2019-05-18T10:40:39.543Z,49.33
2019-05-18T10:41:39.548Z,49.03
2019-05-18T10:42:39.524Z,47.61
2019-05-18T10:43:39.509Z,47.44
2019-05-18T10:44:39.523Z,47.41
2019-05-18T10:45:39.484Z,47.21
2019-05-18T10:46:39.502Z,46.91
2019-05-18T10:47:39.483Z,46.72
2019-05-18T10:48:39.450Z,47.31
2019-05-18T10:49:39.440Z,46.81
2019-05-18T10:50:39.431Z,45.42
2019-05-18T10:51:39.449Z,45.32
2019-05-18T10:52:39.408Z,46.01
2019-05-18T10:53:39.402Z,47.31
2019-05-18T10:54:39.414Z,46.72
2019-05-18T10:55:39.380Z,46.42
2019-05-18T10:56:39.396Z,45.12
2019-05-18T10:57:39.382Z,47.41
2019-05-18T10:58:39.340Z,45.22
2019-05-18T10:59:39.329Z,45.52
2019-05-18T11:00:39.350Z,46.81
2019-05-18T11:01:39.361Z,46.31
2019-05-18T11:02:39.308Z,43.13
2019-05-18T11:03:39.293Z,45.62
2019-05-18T11:04:39.273Z,45.92
2019-05-18T11:05:39.323Z,45.42
2019-05-18T11:06:39.275Z,45.30
2019-05-18T11:07:39.267Z,45.92
2019-05-18T11:08:39.270Z,44.40
2019-05-18T11:09:39.223Z,45.00
2019-05-18T11:10:39.230Z,44.01
2019-05-18T11:11:39.214Z,44.01
2019-05-18T11:12:39.228Z,44.31
2019-05-18T11:13:39.194Z,43.11
2019-05-18T11:14:39.190Z,44.10
2019-05-18T11:15:39.158Z,44.80
2019-05-18T11:16:39.143Z,46.00
2019-05-18T11:17:39.136Z,45.79
2019-05-18T11:18:39.133Z,43.80
2019-05-18T11:19:39.116Z,44.50
2019-05-18T11:20:39.106Z,43.80
2019-05-18T11:21:39.127Z,44.70
2019-05-18T11:22:39.089Z,45.40
2019-05-18T11:23:43.649Z,46.77
2019-05-18T11:24:40.064Z,45.97
2019-05-18T11:25:39.048Z,46.37
2019-05-18T11:26:39.039Z,45.37
2019-05-18T11:27:39.030Z,43.79
2019-05-18T11:28:39.035Z,45.18
2019-05-18T11:29:39.020Z,45.15
2019-05-18T11:30:38.995Z,43.96
2019-05-18T11:31:38.985Z,43.16
2019-05-18T11:32:38.977Z,42.86
2019-05-18T11:33:38.982Z,43.07
2019-05-18T11:34:38.953Z,42.47
2019-05-18T11:35:38.958Z,43.76
2019-05-18T11:36:38.921Z,43.38
2019-05-18T11:37:38.923Z,44.08
2019-05-18T11:38:38.927Z,45.15
2019-05-18T11:39:38.956Z,44.56
2019-05-18T11:40:38.937Z,41.89
2019-05-18T11:41:38.893Z,42.47
2019-05-18T11:42:38.864Z,42.86
2019-05-18T11:43:38.892Z,44.36
2019-05-18T11:44:38.859Z,41.67
2019-05-18T11:45:38.852Z,41.58
2019-05-18T11:46:38.879Z,41.87
2019-05-18T11:47:38.840Z,41.58
2019-05-18T11:48:38.836Z,41.66
2019-05-18T11:49:38.807Z,41.46
2019-05-18T11:50:38.782Z,43.54
2019-05-18T11:51:38.763Z,43.05
2019-05-18T11:52:38.762Z,43.44
2019-05-18T11:53:38.795Z,45.33
2019-05-18T11:54:38.740Z,41.85
2019-05-18T11:55:38.733Z,42.65
2019-05-18T11:56:38.734Z,41.95
2019-05-18T11:57:38.698Z,42.05
2019-05-18T11:58:38.712Z,42.35
2019-05-18T11:59:38.693Z,41.75
2019-05-18T12:00:38.662Z,42.57
2019-05-18T12:01:38.654Z,43.16
2019-05-18T12:02:38.668Z,44.36
2019-05-18T12:03:38.629Z,44.26
2019-05-18T12:04:38.645Z,45.06
2019-05-18T12:05:38.622Z,42.25
2019-05-18T12:06:38.609Z,42.37
2019-05-18T12:07:38.587Z,40.78
2019-05-18T12:08:38.573Z,43.84
2019-05-18T12:09:38.581Z,45.45
2019-05-18T12:10:38.565Z,44.14
2019-05-18T12:11:38.565Z,43.57
2019-05-18T12:12:38.565Z,43.46
2019-05-18T12:13:38.531Z,44.54
2019-05-18T12:14:38.522Z,42.94
2019-05-18T12:15:38.519Z,41.66
2019-05-18T12:16:38.502Z,43.05
2019-05-18T12:17:38.489Z,43.74
2019-05-18T12:18:38.470Z,42.75
2019-05-18T12:19:38.478Z,42.65
2019-05-18T12:20:38.473Z,40.66
2019-05-18T12:21:38.453Z,41.16
2019-05-18T12:22:38.456Z,38.79
2019-05-18T12:23:38.438Z,43.07
2019-05-18T12:24:38.405Z,41.77
2019-05-18T12:25:38.475Z,42.67
2019-05-18T12:26:38.378Z,41.67
2019-05-18T12:27:38.439Z,41.87
2019-05-18T12:28:38.358Z,42.27
2019-05-18T12:29:38.358Z,41.67
2019-05-18T12:30:38.363Z,41.87
2019-05-18T12:31:38.334Z,41.85
2019-05-18T12:32:38.324Z,43.16
2019-05-18T12:33:38.307Z,42.85
2019-05-18T12:34:38.296Z,43.44
2019-05-18T12:35:38.350Z,42.85
2019-05-18T12:36:38.275Z,43.84
2019-05-18T12:37:38.278Z,42.75
2019-05-18T12:38:38.267Z,41.55
2019-05-18T12:39:38.242Z,41.46
2019-05-18T12:40:38.246Z,40.76
2019-05-18T12:41:38.233Z,41.55
2019-05-18T12:42:38.208Z,41.75
2019-05-18T12:43:38.238Z,41.46
2019-05-18T12:44:38.204Z,41.66
2019-05-18T12:45:38.199Z,40.44
2019-05-18T12:46:38.187Z,40.96
2019-05-18T12:47:38.161Z,41.44
2019-05-18T12:48:38.145Z,40.05
2019-05-18T12:49:38.142Z,42.83
2019-05-18T12:50:38.131Z,39.15
2019-05-18T12:51:38.135Z,39.65
2019-05-18T12:52:38.105Z,40.24